sensor_id;sensor_type;location;lat;lon;timestamp;temperature;humidity
7290;DHT22;63176;52.678;13.250;2022-12-18T00:01:03;-3.30;99.90
7290;DHT22;63176;52.678;13.250;2022-12-18T00:03:33;-3.10;99.90
7290;DHT22;63176;52.678;13.250;2022-12-18T00:05:58;-3.30;99.90
7290;DHT22;63176;52.678;13.250;2022-12-18T00:08:24;-3.30;99.90
7290;DHT22;63176;52.678;13.250;2022-12-18T00:10:50;-3.30;99.90
7290;DHT22;63176;52.678;13.250;2022-12-18T00:13:16;-3.30;99.90
7290;DHT22;63176;52.678;13.250;2022-12-18T00:15:42;-3.30;99.90
7290;DHT22;63176;52.678;13.250;2022-12-18T00:18:08;-3.40;99.90
7290;DHT22;63176;52.678;13.250;2022-12-18T00:20:40;-3.40;99.90
7290;DHT22;63176;52.678;13.250;2022-12-18T00:23:06;-3.40;99.90
7290;DHT22;63176;52.678;13.250;2022-12-18T00:25:33;-3.40;99.90
7290;DHT22;63176;52.678;13.250;2022-12-18T00:28:00;-3.30;99.90
7290;DHT22;63176;52.678;13.250;2022-12-18T00:30:25;-3.30;99.90
7290;DHT22;63176;52.678;13.250;2022-12-18T00:32:51;-3.30;99.90
7290;DHT22;63176;52.678;13.250;2022-12-18T00:35:16;-3.20;99.90
7290;DHT22;63176;52.678;13.250;2022-12-18T00:37:42;-3.20;99.90
7290;DHT22;63176;52.678;13.250;2022-12-18T00:40:08;-3.30;99.90
7290;DHT22;63176;52.678;13.250;2022-12-18T00:42:34;-3.30;99.90
7290;DHT22;63176;52.678;13.250;2022-12-18T00:45:18;-3.30;99.90
7290;DHT22;63176;52.678;13.250;2022-12-18T00:47:44;-3.30;99.90
7290;DHT22;63176;52.678;13.250;2022-12-18T00:50:10;-3.30;99.90
7290;DHT22;63176;52.678;13.250;2022-12-18T00:52:35;-3.30;99.90
7290;DHT22;63176;52.678;13.250;2022-12-18T00:55:01;-3.20;99.90
7290;DHT22;63176;52.678;13.250;2022-12-18T00:57:26;-3.20;99.90
7290;DHT22;63176;52.678;13.250;2022-12-18T00:59:52;-3.10;99.90
7290;DHT22;63176;52.678;13.250;2022-12-18T01:02:18;-3.10;99.90
7290;DHT22;63176;52.678;13.250;2022-12-18T01:04:43;-3.00;99.90
7290;DHT22;63176;52.678;13.250;2022-12-18T01:07:09;-3.10;99.90
7290;DHT22;63176;52.678;13.250;2022-12-18T01:09:34;-3.20;99.90
7290;DHT22;63176;52.678;13.250;2022-12-18T01:12:00;-3.20;99.90
7290;DHT22;63176;52.678;13.250;2022-12-18T01:14:26;-3.20;99.90
7290;DHT22;63176;52.678;13.250;2022-12-18T01:16:51;-3.20;99.90
7290;DHT22;63176;52.678;13.250;2022-12-18T01:19:17;-3.20;99.90
7290;DHT22;63176;52.678;13.250;2022-12-18T01:21:42;-3.30;99.90
7290;DHT22;63176;52.678;13.250;2022-12-18T01:24:11;-3.30;99.90
7290;DHT22;63176;52.678;13.250;2022-12-18T01:26:37;-3.30;99.90
7290;DHT22;63176;52.678;13.250;2022-12-18T01:29:03;-3.30;99.90
7290;DHT22;63176;52.678;13.250;2022-12-18T01:31:31;-3.30;99.90
7290;DHT22;63176;52.678;13.250;2022-12-18T01:33:57;-3.30;99.90
7290;DHT22;63176;52.678;13.250;2022-12-18T01:36:28;-3.30;99.90
7290;DHT22;63176;52.678;13.250;2022-12-18T01:38:54;-3.30;99.90
7290;DHT22;63176;52.678;13.250;2022-12-18T01:41:23;-3.30;99.90
7290;DHT22;63176;52.678;13.250;2022-12-18T01:43:53;-3.30;99.90
7290;DHT22;63176;52.678;13.250;2022-12-18T01:46:22;-3.40;99.90
7290;DHT22;63176;52.678;13.250;2022-12-18T01:48:57;-3.40;99.90
7290;DHT22;63176;52.678;13.250;2022-12-18T01:51:26;-3.40;99.90
7290;DHT22;63176;52.678;13.250;2022-12-18T01:53:52;-3.40;99.90
7290;DHT22;63176;52.678;13.250;2022-12-18T01:56:20;-3.40;99.90
7290;DHT22;63176;52.678;13.250;2022-12-18T01:58:54;-3.40;99.90
7290;DHT22;63176;52.678;13.250;2022-12-18T02:01:23;-3.50;99.90
7290;DHT22;63176;52.678;13.250;2022-12-18T02:03:49;-3.40;99.90
7290;DHT22;63176;52.678;13.250;2022-12-18T02:09:10;-3.50;99.90
7290;DHT22;63176;52.678;13.250;2022-12-18T02:17:27;-3.60;99.90
7290;DHT22;63176;52.678;13.250;2022-12-18T02:20:21;-3.60;99.90
7290;DHT22;63176;52.678;13.250;2022-12-18T02:23:03;-3.60;99.90
7290;DHT22;63176;52.678;13.250;2022-12-18T02:28:21;-3.50;99.90
7290;DHT22;63176;52.678;13.250;2022-12-18T02:30:50;-3.50;99.90
7290;DHT22;63176;52.678;13.250;2022-12-18T02:33:19;-3.50;99.90
7290;DHT22;63176;52.678;13.250;2022-12-18T02:35:47;-3.50;99.90
7290;DHT22;63176;52.678;13.250;2022-12-18T02:38:13;-3.50;99.90
7290;DHT22;63176;52.678;13.250;2022-12-18T02:40:40;-3.50;99.90
7290;DHT22;63176;52.678;13.250;2022-12-18T02:43:12;-3.40;99.90
7290;DHT22;63176;52.678;13.250;2022-12-18T02:45:57;-3.40;99.90
7290;DHT22;63176;52.678;13.250;2022-12-18T02:48:30;-3.40;99.90
7290;DHT22;63176;52.678;13.250;2022-12-18T02:53:39;-3.50;99.90
7290;DHT22;63176;52.678;13.250;2022-12-18T02:56:13;-3.50;99.90
7290;DHT22;63176;52.678;13.250;2022-12-18T02:58:57;-3.50;99.90
7290;DHT22;63176;52.678;13.250;2022-12-18T03:01:46;-3.40;99.90
7290;DHT22;63176;52.678;13.250;2022-12-18T03:04:27;-3.50;99.90
7290;DHT22;63176;52.678;13.250;2022-12-18T03:06:57;-3.50;99.90
7290;DHT22;63176;52.678;13.250;2022-12-18T03:09:35;-3.60;99.90
7290;DHT22;63176;52.678;13.250;2022-12-18T03:12:07;-3.70;99.90
7290;DHT22;63176;52.678;13.250;2022-12-18T03:15:03;-3.60;99.90
7290;DHT22;63176;52.678;13.250;2022-12-18T03:17:32;-3.60;99.90
7290;DHT22;63176;52.678;13.250;2022-12-18T03:20:02;-3.60;99.90
7290;DHT22;63176;52.678;13.250;2022-12-18T03:22:30;-3.60;99.90
7290;DHT22;63176;52.678;13.250;2022-12-18T03:25:00;-3.60;99.90
7290;DHT22;63176;52.678;13.250;2022-12-18T03:27:26;-3.60;99.90
7290;DHT22;63176;52.678;13.250;2022-12-18T03:30:11;-3.60;99.90
7290;DHT22;63176;52.678;13.250;2022-12-18T03:32:58;-3.50;99.90
7290;DHT22;63176;52.678;13.250;2022-12-18T03:35:33;-3.50;99.90
7290;DHT22;63176;52.678;13.250;2022-12-18T03:38:00;-3.50;99.90
7290;DHT22;63176;52.678;13.250;2022-12-18T03:47:14;-3.50;99.90
7290;DHT22;63176;52.678;13.250;2022-12-18T03:49:38;-3.60;99.90
7290;DHT22;63176;52.678;13.250;2022-12-18T03:52:10;-3.50;99.90
7290;DHT22;63176;52.678;13.250;2022-12-18T03:54:39;-3.50;99.90
7290;DHT22;63176;52.678;13.250;2022-12-18T03:57:27;-3.50;99.90
7290;DHT22;63176;52.678;13.250;2022-12-18T04:00:04;-3.50;99.90
7290;DHT22;63176;52.678;13.250;2022-12-18T04:02:31;-3.60;99.90
7290;DHT22;63176;52.678;13.250;2022-12-18T04:05:02;-3.60;99.90
7290;DHT22;63176;52.678;13.250;2022-12-18T04:07:28;-3.60;99.90
7290;DHT22;63176;52.678;13.250;2022-12-18T04:09:56;-3.70;99.90
7290;DHT22;63176;52.678;13.250;2022-12-18T04:12:26;-3.70;99.90
7290;DHT22;63176;52.678;13.250;2022-12-18T04:14:52;-3.70;99.90
7290;DHT22;63176;52.678;13.250;2022-12-18T04:17:18;-3.60;99.90
7290;DHT22;63176;52.678;13.250;2022-12-18T04:19:43;-3.60;99.90
7290;DHT22;63176;52.678;13.250;2022-12-18T04:22:10;-3.50;99.90
7290;DHT22;63176;52.678;13.250;2022-12-18T04:24:36;-3.50;99.90
7290;DHT22;63176;52.678;13.250;2022-12-18T04:27:02;-3.60;99.90
7290;DHT22;63176;52.678;13.250;2022-12-18T04:29:27;-3.60;99.90
7290;DHT22;63176;52.678;13.250;2022-12-18T04:31:53;-3.60;99.90
7290;DHT22;63176;52.678;13.250;2022-12-18T04:34:19;-3.60;99.90
7290;DHT22;63176;52.678;13.250;2022-12-18T04:36:45;-3.60;99.90
7290;DHT22;63176;52.678;13.250;2022-12-18T04:39:11;-3.60;99.90
7290;DHT22;63176;52.678;13.250;2022-12-18T04:41:36;-3.60;99.90
7290;DHT22;63176;52.678;13.250;2022-12-18T04:44:02;-3.60;99.90
7290;DHT22;63176;52.678;13.250;2022-12-18T04:46:28;-3.60;99.90
7290;DHT22;63176;52.678;13.250;2022-12-18T04:48:53;-3.60;99.90
7290;DHT22;63176;52.678;13.250;2022-12-18T04:51:19;-3.60;99.90
7290;DHT22;63176;52.678;13.250;2022-12-18T04:53:44;-3.70;99.90
7290;DHT22;63176;52.678;13.250;2022-12-18T04:56:12;-3.70;99.90
7290;DHT22;63176;52.678;13.250;2022-12-18T04:58:40;-3.60;99.90
7290;DHT22;63176;52.678;13.250;2022-12-18T05:01:05;-3.60;99.90
7290;DHT22;63176;52.678;13.250;2022-12-18T05:03:33;-3.60;99.90
7290;DHT22;63176;52.678;13.250;2022-12-18T05:05:59;-3.70;99.90
7290;DHT22;63176;52.678;13.250;2022-12-18T05:08:24;-3.70;99.90
7290;DHT22;63176;52.678;13.250;2022-12-18T05:11:01;-3.70;99.90
7290;DHT22;63176;52.678;13.250;2022-12-18T05:13:28;-3.70;99.90
7290;DHT22;63176;52.678;13.250;2022-12-18T05:15:54;-3.80;99.90
7290;DHT22;63176;52.678;13.250;2022-12-18T05:18:21;-3.70;99.90
7290;DHT22;63176;52.678;13.250;2022-12-18T05:20:46;-3.70;99.90
7290;DHT22;63176;52.678;13.250;2022-12-18T05:23:12;-3.80;99.90
7290;DHT22;63176;52.678;13.250;2022-12-18T05:25:38;-3.80;99.90
7290;DHT22;63176;52.678;13.250;2022-12-18T05:28:04;-3.80;99.90
7290;DHT22;63176;52.678;13.250;2022-12-18T05:30:29;-3.80;99.90
7290;DHT22;63176;52.678;13.250;2022-12-18T05:32:55;-3.70;99.90
7290;DHT22;63176;52.678;13.250;2022-12-18T05:35:20;-3.80;99.90
7290;DHT22;63176;52.678;13.250;2022-12-18T05:37:46;-3.70;99.90
7290;DHT22;63176;52.678;13.250;2022-12-18T05:40:12;-3.70;99.90
7290;DHT22;63176;52.678;13.250;2022-12-18T05:42:38;-3.70;99.90
7290;DHT22;63176;52.678;13.250;2022-12-18T05:45:04;-3.70;99.90
7290;DHT22;63176;52.678;13.250;2022-12-18T05:47:30;-3.70;99.90
7290;DHT22;63176;52.678;13.250;2022-12-18T05:49:56;-3.70;99.90
7290;DHT22;63176;52.678;13.250;2022-12-18T05:52:21;-3.70;99.90
7290;DHT22;63176;52.678;13.250;2022-12-18T05:54:47;-3.70;99.90
7290;DHT22;63176;52.678;13.250;2022-12-18T05:57:13;-3.80;99.90
7290;DHT22;63176;52.678;13.250;2022-12-18T05:59:38;-3.70;99.90
7290;DHT22;63176;52.678;13.250;2022-12-18T06:02:04;-3.80;99.90
7290;DHT22;63176;52.678;13.250;2022-12-18T06:04:30;-3.80;99.90
7290;DHT22;63176;52.678;13.250;2022-12-18T06:06:55;-3.80;99.90
7290;DHT22;63176;52.678;13.250;2022-12-18T06:09:21;-3.80;99.90
7290;DHT22;63176;52.678;13.250;2022-12-18T06:11:47;-3.80;99.90
7290;DHT22;63176;52.678;13.250;2022-12-18T06:14:12;-3.80;99.90
7290;DHT22;63176;52.678;13.250;2022-12-18T06:16:38;-3.80;99.90
7290;DHT22;63176;52.678;13.250;2022-12-18T06:19:05;-3.80;99.90
7290;DHT22;63176;52.678;13.250;2022-12-18T06:21:31;-3.80;99.90
7290;DHT22;63176;52.678;13.250;2022-12-18T06:23:57;-3.70;99.90
7290;DHT22;63176;52.678;13.250;2022-12-18T06:26:24;-3.80;99.90
7290;DHT22;63176;52.678;13.250;2022-12-18T06:28:49;-3.90;99.90
7290;DHT22;63176;52.678;13.250;2022-12-18T06:31:15;-3.90;99.90
7290;DHT22;63176;52.678;13.250;2022-12-18T06:33:41;-3.90;99.90
7290;DHT22;63176;52.678;13.250;2022-12-18T06:36:13;-3.90;99.90
7290;DHT22;63176;52.678;13.250;2022-12-18T06:38:41;-3.90;99.90
7290;DHT22;63176;52.678;13.250;2022-12-18T06:41:25;-3.90;99.90
7290;DHT22;63176;52.678;13.250;2022-12-18T06:43:51;-3.90;99.90
7290;DHT22;63176;52.678;13.250;2022-12-18T06:46:16;-3.80;99.90
7290;DHT22;63176;52.678;13.250;2022-12-18T06:48:42;-3.70;99.90
7290;DHT22;63176;52.678;13.250;2022-12-18T06:51:08;-3.70;99.90
7290;DHT22;63176;52.678;13.250;2022-12-18T06:53:34;-3.70;99.90
7290;DHT22;63176;52.678;13.250;2022-12-18T06:56:03;-3.80;99.90
7290;DHT22;63176;52.678;13.250;2022-12-18T06:58:29;-3.90;99.90
7290;DHT22;63176;52.678;13.250;2022-12-18T07:01:03;-3.90;99.90
7290;DHT22;63176;52.678;13.250;2022-12-18T07:03:29;-3.90;99.90
7290;DHT22;63176;52.678;13.250;2022-12-18T07:05:55;-3.80;99.90
7290;DHT22;63176;52.678;13.250;2022-12-18T07:08:21;-3.80;99.90
7290;DHT22;63176;52.678;13.250;2022-12-18T07:10:47;-3.80;99.90
7290;DHT22;63176;52.678;13.250;2022-12-18T07:13:15;-3.80;99.90
7290;DHT22;63176;52.678;13.250;2022-12-18T07:15:40;-3.80;99.90
7290;DHT22;63176;52.678;13.250;2022-12-18T07:18:06;-3.80;99.90
7290;DHT22;63176;52.678;13.250;2022-12-18T07:20:32;-3.80;99.90
7290;DHT22;63176;52.678;13.250;2022-12-18T07:22:57;-3.80;99.90
7290;DHT22;63176;52.678;13.250;2022-12-18T07:25:23;-3.80;99.90
7290;DHT22;63176;52.678;13.250;2022-12-18T07:27:49;-3.80;99.90
7290;DHT22;63176;52.678;13.250;2022-12-18T07:30:14;-3.80;99.90
7290;DHT22;63176;52.678;13.250;2022-12-18T07:32:40;-3.80;99.90
7290;DHT22;63176;52.678;13.250;2022-12-18T07:35:06;-3.80;99.90
7290;DHT22;63176;52.678;13.250;2022-12-18T07:37:31;-3.80;99.90
7290;DHT22;63176;52.678;13.250;2022-12-18T07:39:57;-3.80;99.90
7290;DHT22;63176;52.678;13.250;2022-12-18T07:42:22;-3.90;99.90
7290;DHT22;63176;52.678;13.250;2022-12-18T07:45:00;-3.80;99.90
7290;DHT22;63176;52.678;13.250;2022-12-18T07:47:27;-3.70;99.90
7290;DHT22;63176;52.678;13.250;2022-12-18T07:49:52;-3.70;99.90
7290;DHT22;63176;52.678;13.250;2022-12-18T07:52:18;-3.70;99.90
7290;DHT22;63176;52.678;13.250;2022-12-18T07:54:44;-3.70;99.90
7290;DHT22;63176;52.678;13.250;2022-12-18T07:57:10;-3.80;99.90
7290;DHT22;63176;52.678;13.250;2022-12-18T07:59:36;-3.80;99.90
7290;DHT22;63176;52.678;13.250;2022-12-18T08:02:02;-3.80;99.90
7290;DHT22;63176;52.678;13.250;2022-12-18T08:04:28;-3.80;99.90
7290;DHT22;63176;52.678;13.250;2022-12-18T08:06:54;-3.80;99.90
7290;DHT22;63176;52.678;13.250;2022-12-18T08:09:19;-3.80;99.90
7290;DHT22;63176;52.678;13.250;2022-12-18T08:11:45;-3.80;99.90
7290;DHT22;63176;52.678;13.250;2022-12-18T08:14:11;-3.80;99.90
7290;DHT22;63176;52.678;13.250;2022-12-18T08:16:37;-3.80;99.90
7290;DHT22;63176;52.678;13.250;2022-12-18T08:19:03;-3.80;99.90
7290;DHT22;63176;52.678;13.250;2022-12-18T08:21:30;-3.90;99.90
7290;DHT22;63176;52.678;13.250;2022-12-18T08:23:58;-3.80;99.90
7290;DHT22;63176;52.678;13.250;2022-12-18T08:26:25;-3.80;99.90
7290;DHT22;63176;52.678;13.250;2022-12-18T08:28:54;-3.70;99.90
7290;DHT22;63176;52.678;13.250;2022-12-18T08:31:20;-3.70;99.90
7290;DHT22;63176;52.678;13.250;2022-12-18T08:33:49;-3.80;99.90
7290;DHT22;63176;52.678;13.250;2022-12-18T08:36:15;-3.70;99.90
7290;DHT22;63176;52.678;13.250;2022-12-18T08:38:41;-3.70;99.90
7290;DHT22;63176;52.678;13.250;2022-12-18T08:41:09;-3.70;99.90
7290;DHT22;63176;52.678;13.250;2022-12-18T08:43:35;-3.60;99.90
7290;DHT22;63176;52.678;13.250;2022-12-18T08:46:21;-3.50;99.90
7290;DHT22;63176;52.678;13.250;2022-12-18T08:48:47;-3.50;99.90
7290;DHT22;63176;52.678;13.250;2022-12-18T08:51:13;-3.60;99.90
7290;DHT22;63176;52.678;13.250;2022-12-18T08:53:42;-3.50;99.90
7290;DHT22;63176;52.678;13.250;2022-12-18T08:56:07;-3.40;99.90
7290;DHT22;63176;52.678;13.250;2022-12-18T08:58:33;-3.40;99.90
7290;DHT22;63176;52.678;13.250;2022-12-18T09:01:03;-3.40;99.90
7290;DHT22;63176;52.678;13.250;2022-12-18T09:03:29;-3.40;99.90
7290;DHT22;63176;52.678;13.250;2022-12-18T09:05:55;-3.20;99.90
7290;DHT22;63176;52.678;13.250;2022-12-18T09:08:21;-3.30;99.90
7290;DHT22;63176;52.678;13.250;2022-12-18T09:10:48;-3.30;99.90
7290;DHT22;63176;52.678;13.250;2022-12-18T09:13:14;-3.30;99.90
7290;DHT22;63176;52.678;13.250;2022-12-18T09:15:42;-3.30;99.90
7290;DHT22;63176;52.678;13.250;2022-12-18T09:18:08;-3.20;99.90
7290;DHT22;63176;52.678;13.250;2022-12-18T09:20:36;-3.10;99.90
7290;DHT22;63176;52.678;13.250;2022-12-18T09:23:02;-3.00;99.90
7290;DHT22;63176;52.678;13.250;2022-12-18T09:25:29;-3.10;99.90
7290;DHT22;63176;52.678;13.250;2022-12-18T09:27:59;-3.10;99.90
7290;DHT22;63176;52.678;13.250;2022-12-18T09:30:24;-2.90;99.90
7290;DHT22;63176;52.678;13.250;2022-12-18T09:32:50;-3.10;99.90
7290;DHT22;63176;52.678;13.250;2022-12-18T09:35:15;-3.10;99.90
7290;DHT22;63176;52.678;13.250;2022-12-18T09:37:41;-3.10;99.90
7290;DHT22;63176;52.678;13.250;2022-12-18T09:40:16;-3.00;99.90
7290;DHT22;63176;52.678;13.250;2022-12-18T09:42:46;-3.10;99.90
7290;DHT22;63176;52.678;13.250;2022-12-18T09:45:14;-3.10;99.90
7290;DHT22;63176;52.678;13.250;2022-12-18T09:47:43;-3.00;99.90
7290;DHT22;63176;52.678;13.250;2022-12-18T09:50:32;-3.00;99.90
7290;DHT22;63176;52.678;13.250;2022-12-18T09:53:04;-3.00;99.90
7290;DHT22;63176;52.678;13.250;2022-12-18T09:55:37;-2.90;99.90
7290;DHT22;63176;52.678;13.250;2022-12-18T09:58:18;-2.90;99.90
7290;DHT22;63176;52.678;13.250;2022-12-18T10:00:45;-2.90;99.90
7290;DHT22;63176;52.678;13.250;2022-12-18T10:03:15;-2.90;99.90
7290;DHT22;63176;52.678;13.250;2022-12-18T10:09:49;-2.90;99.90
7290;DHT22;63176;52.678;13.250;2022-12-18T10:12:06;-2.90;99.90
7290;DHT22;63176;52.678;13.250;2022-12-18T10:20:54;-2.90;99.90
7290;DHT22;63176;52.678;13.250;2022-12-18T10:26:10;-2.90;99.90
7290;DHT22;63176;52.678;13.250;2022-12-18T10:28:38;-2.90;99.90
7290;DHT22;63176;52.678;13.250;2022-12-18T10:31:23;-2.80;99.90
7290;DHT22;63176;52.678;13.250;2022-12-18T10:33:49;-2.80;99.90
7290;DHT22;63176;52.678;13.250;2022-12-18T10:36:15;-2.80;99.90
7290;DHT22;63176;52.678;13.250;2022-12-18T10:38:41;-2.80;99.90
7290;DHT22;63176;52.678;13.250;2022-12-18T10:41:25;-2.80;99.90
7290;DHT22;63176;52.678;13.250;2022-12-18T10:44:24;-2.70;99.90
7290;DHT22;63176;52.678;13.250;2022-12-18T10:47:05;-2.70;99.90
7290;DHT22;63176;52.678;13.250;2022-12-18T10:49:33;-2.80;99.90
7290;DHT22;63176;52.678;13.250;2022-12-18T10:52:22;-2.70;99.90
7290;DHT22;63176;52.678;13.250;2022-12-18T10:54:57;-2.60;99.90
7290;DHT22;63176;52.678;13.250;2022-12-18T10:57:36;-2.60;99.90
7290;DHT22;63176;52.678;13.250;2022-12-18T11:00:26;-2.60;99.90
7290;DHT22;63176;52.678;13.250;2022-12-18T11:02:53;-2.50;99.90
7290;DHT22;63176;52.678;13.250;2022-12-18T11:05:31;-2.60;99.90
7290;DHT22;63176;52.678;13.250;2022-12-18T11:07:58;-2.60;99.90
7290;DHT22;63176;52.678;13.250;2022-12-18T11:10:36;-2.50;99.90
7290;DHT22;63176;52.678;13.250;2022-12-18T11:15:35;-2.50;99.90
7290;DHT22;63176;52.678;13.250;2022-12-18T11:18:01;-2.30;99.90
7290;DHT22;63176;52.678;13.250;2022-12-18T11:20:32;-2.30;99.90
7290;DHT22;63176;52.678;13.250;2022-12-18T11:23:04;-2.30;99.90
7290;DHT22;63176;52.678;13.250;2022-12-18T11:25:32;-2.40;99.90
7290;DHT22;63176;52.678;13.250;2022-12-18T11:28:26;-2.20;99.90
7290;DHT22;63176;52.678;13.250;2022-12-18T11:30:50;-2.40;99.90
7290;DHT22;63176;52.678;13.250;2022-12-18T11:33:33;-2.40;99.90
7290;DHT22;63176;52.678;13.250;2022-12-18T11:36:02;-2.40;99.90
7290;DHT22;63176;52.678;13.250;2022-12-18T11:38:48;-2.40;99.90
7290;DHT22;63176;52.678;13.250;2022-12-18T11:43:56;-2.30;99.90
7290;DHT22;63176;52.678;13.250;2022-12-18T11:46:30;-2.30;99.90
7290;DHT22;63176;52.678;13.250;2022-12-18T11:51:32;-2.20;99.90
7290;DHT22;63176;52.678;13.250;2022-12-18T11:54:01;-2.20;99.90
7290;DHT22;63176;52.678;13.250;2022-12-18T11:56:41;-2.20;99.90
7290;DHT22;63176;52.678;13.250;2022-12-18T12:01:50;-2.20;99.90
7290;DHT22;63176;52.678;13.250;2022-12-18T12:04:28;-2.10;99.90
7290;DHT22;63176;52.678;13.250;2022-12-18T12:09:57;-2.10;99.90
7290;DHT22;63176;52.678;13.250;2022-12-18T12:13:03;-2.20;99.90
7290;DHT22;63176;52.678;13.250;2022-12-18T12:15:42;-2.20;99.90
7290;DHT22;63176;52.678;13.250;2022-12-18T12:21:21;-2.20;99.90
7290;DHT22;63176;52.678;13.250;2022-12-18T12:40:27;-1.90;99.90
7290;DHT22;63176;52.678;13.250;2022-12-18T12:45:57;-1.90;99.90
7290;DHT22;63176;52.678;13.250;2022-12-18T12:51:16;-2.00;99.90
7290;DHT22;63176;52.678;13.250;2022-12-18T12:53:43;-2.00;99.90
7290;DHT22;63176;52.678;13.250;2022-12-18T12:56:12;-1.90;99.90
7290;DHT22;63176;52.678;13.250;2022-12-18T13:04:37;-1.90;99.90
7290;DHT22;63176;52.678;13.250;2022-12-18T13:07:15;-1.90;99.90
7290;DHT22;63176;52.678;13.250;2022-12-18T13:23:30;-2.10;99.90
7290;DHT22;63176;52.678;13.250;2022-12-18T13:33:46;-2.00;99.90
7290;DHT22;63176;52.678;13.250;2022-12-18T13:36:33;-2.00;99.90
7290;DHT22;63176;52.678;13.250;2022-12-18T13:39:23;-2.00;99.90
7290;DHT22;63176;52.678;13.250;2022-12-18T13:44:36;-2.00;99.90
7290;DHT22;63176;52.678;13.250;2022-12-18T13:47:05;-2.00;99.90
7290;DHT22;63176;52.678;13.250;2022-12-18T13:49:46;-2.00;99.90
7290;DHT22;63176;52.678;13.250;2022-12-18T13:52:24;-2.00;99.90
7290;DHT22;63176;52.678;13.250;2022-12-18T13:54:58;-2.00;99.90
7290;DHT22;63176;52.678;13.250;2022-12-18T13:57:37;-2.00;99.90
7290;DHT22;63176;52.678;13.250;2022-12-18T14:02:48;-2.20;99.90
7290;DHT22;63176;52.678;13.250;2022-12-18T14:05:30;-2.10;99.90
7290;DHT22;63176;52.678;13.250;2022-12-18T14:08:13;-2.10;99.90
7290;DHT22;63176;52.678;13.250;2022-12-18T14:10:45;-2.10;99.90
7290;DHT22;63176;52.678;13.250;2022-12-18T14:13:29;-2.10;99.90
7290;DHT22;63176;52.678;13.250;2022-12-18T14:15:56;-2.10;99.90
7290;DHT22;63176;52.678;13.250;2022-12-18T14:18:36;-2.10;99.90
7290;DHT22;63176;52.678;13.250;2022-12-18T14:21:03;-2.10;99.90
7290;DHT22;63176;52.678;13.250;2022-12-18T14:25:55;-2.00;99.90
7290;DHT22;63176;52.678;13.250;2022-12-18T14:28:21;-2.00;99.90
7290;DHT22;63176;52.678;13.250;2022-12-18T14:30:48;-2.00;99.90
7290;DHT22;63176;52.678;13.250;2022-12-18T14:33:26;-2.00;99.90
7290;DHT22;63176;52.678;13.250;2022-12-18T14:41:15;-2.00;99.90
7290;DHT22;63176;52.678;13.250;2022-12-18T14:43:41;-2.10;99.90
7290;DHT22;63176;52.678;13.250;2022-12-18T14:46:32;-2.00;99.90
7290;DHT22;63176;52.678;13.250;2022-12-18T14:49:02;-2.10;99.90
7290;DHT22;63176;52.678;13.250;2022-12-18T14:51:32;-2.10;99.90
7290;DHT22;63176;52.678;13.250;2022-12-18T14:54:03;-2.00;99.90
7290;DHT22;63176;52.678;13.250;2022-12-18T14:56:35;-2.10;99.90
7290;DHT22;63176;52.678;13.250;2022-12-18T14:59:12;-2.00;99.90
7290;DHT22;63176;52.678;13.250;2022-12-18T15:04:34;-2.20;99.90
7290;DHT22;63176;52.678;13.250;2022-12-18T15:09:32;-2.20;99.90
7290;DHT22;63176;52.678;13.250;2022-12-18T15:11:59;-2.20;99.90
7290;DHT22;63176;52.678;13.250;2022-12-18T15:14:34;-2.20;99.90
7290;DHT22;63176;52.678;13.250;2022-12-18T15:17:02;-2.20;99.90
7290;DHT22;63176;52.678;13.250;2022-12-18T15:19:38;-2.20;99.90
7290;DHT22;63176;52.678;13.250;2022-12-18T15:22:27;-2.20;99.90
7290;DHT22;63176;52.678;13.250;2022-12-18T15:24:56;-2.10;99.90
7290;DHT22;63176;52.678;13.250;2022-12-18T15:27:32;-2.10;99.90
7290;DHT22;63176;52.678;13.250;2022-12-18T15:30:21;-2.10;99.90
7290;DHT22;63176;52.678;13.250;2022-12-18T15:32:48;-2.20;99.90
7290;DHT22;63176;52.678;13.250;2022-12-18T15:37:40;-1.90;99.90
7290;DHT22;63176;52.678;13.250;2022-12-18T15:40:07;-2.00;99.90
7290;DHT22;63176;52.678;13.250;2022-12-18T15:42:33;-2.00;99.90
7290;DHT22;63176;52.678;13.250;2022-12-18T15:45:17;-2.00;99.90
7290;DHT22;63176;52.678;13.250;2022-12-18T15:47:44;-2.20;99.90
7290;DHT22;63176;52.678;13.250;2022-12-18T15:50:10;-2.00;99.90
7290;DHT22;63176;52.678;13.250;2022-12-18T15:52:44;-2.20;99.90
7290;DHT22;63176;52.678;13.250;2022-12-18T15:55:15;-2.10;99.90
7290;DHT22;63176;52.678;13.250;2022-12-18T15:58:00;-2.20;99.90
7290;DHT22;63176;52.678;13.250;2022-12-18T16:00:26;-2.20;99.90
7290;DHT22;63176;52.678;13.250;2022-12-18T16:02:52;-2.20;99.90
7290;DHT22;63176;52.678;13.250;2022-12-18T16:05:19;-2.30;99.90
7290;DHT22;63176;52.678;13.250;2022-12-18T16:07:45;-2.10;99.90
7290;DHT22;63176;52.678;13.250;2022-12-18T16:10:11;-2.30;99.90
7290;DHT22;63176;52.678;13.250;2022-12-18T16:12:37;-2.30;99.90
7290;DHT22;63176;52.678;13.250;2022-12-18T16:15:05;-2.20;99.90
7290;DHT22;63176;52.678;13.250;2022-12-18T16:17:31;-2.30;99.90
7290;DHT22;63176;52.678;13.250;2022-12-18T16:19:56;-2.30;99.90
7290;DHT22;63176;52.678;13.250;2022-12-18T16:22:24;-2.20;99.90
7290;DHT22;63176;52.678;13.250;2022-12-18T16:24:51;-2.20;99.90
7290;DHT22;63176;52.678;13.250;2022-12-18T16:27:18;-2.40;99.90
7290;DHT22;63176;52.678;13.250;2022-12-18T16:29:44;-2.30;99.90
7290;DHT22;63176;52.678;13.250;2022-12-18T16:32:20;-2.30;99.90
7290;DHT22;63176;52.678;13.250;2022-12-18T16:34:47;-2.30;99.90
7290;DHT22;63176;52.678;13.250;2022-12-18T16:37:14;-2.30;99.90
7290;DHT22;63176;52.678;13.250;2022-12-18T16:39:40;-2.10;99.90
7290;DHT22;63176;52.678;13.250;2022-12-18T16:42:17;-2.10;99.90
7290;DHT22;63176;52.678;13.250;2022-12-18T16:44:45;-2.30;99.90
7290;DHT22;63176;52.678;13.250;2022-12-18T16:47:11;-2.30;99.90
7290;DHT22;63176;52.678;13.250;2022-12-18T16:49:37;-2.40;99.90
7290;DHT22;63176;52.678;13.250;2022-12-18T16:52:04;-2.30;99.90
7290;DHT22;63176;52.678;13.250;2022-12-18T16:54:30;-2.30;99.90
7290;DHT22;63176;52.678;13.250;2022-12-18T16:56:57;-2.40;99.90
7290;DHT22;63176;52.678;13.250;2022-12-18T16:59:25;-2.40;99.90
7290;DHT22;63176;52.678;13.250;2022-12-18T17:01:51;-2.40;99.90
7290;DHT22;63176;52.678;13.250;2022-12-18T17:04:17;-2.40;99.90
7290;DHT22;63176;52.678;13.250;2022-12-18T17:06:44;-2.40;99.90
7290;DHT22;63176;52.678;13.250;2022-12-18T17:09:12;-2.40;99.90
7290;DHT22;63176;52.678;13.250;2022-12-18T17:11:41;-2.40;99.90
7290;DHT22;63176;52.678;13.250;2022-12-18T17:14:16;-2.30;99.90
7290;DHT22;63176;52.678;13.250;2022-12-18T17:16:42;-2.40;99.90
7290;DHT22;63176;52.678;13.250;2022-12-18T17:19:08;-2.40;99.90
7290;DHT22;63176;52.678;13.250;2022-12-18T17:21:34;-2.40;99.90
7290;DHT22;63176;52.678;13.250;2022-12-18T17:24:00;-2.30;99.90
7290;DHT22;63176;52.678;13.250;2022-12-18T17:26:27;-2.40;99.90
7290;DHT22;63176;52.678;13.250;2022-12-18T17:28:55;-2.40;99.90
7290;DHT22;63176;52.678;13.250;2022-12-18T17:31:24;-2.40;99.90
7290;DHT22;63176;52.678;13.250;2022-12-18T17:33:50;-2.40;99.90
7290;DHT22;63176;52.678;13.250;2022-12-18T17:36:16;-2.40;99.90
7290;DHT22;63176;52.678;13.250;2022-12-18T17:38:42;-2.20;99.90
7290;DHT22;63176;52.678;13.250;2022-12-18T17:41:09;-2.40;99.90
7290;DHT22;63176;52.678;13.250;2022-12-18T17:43:36;-2.50;99.90
7290;DHT22;63176;52.678;13.250;2022-12-18T17:46:11;-2.40;99.90